Time;durP1;ratioP1;P1;durP2;ratioP2;P2;SDS_P1;SDS_P2;PMS_P1;PMS_P2;Temp;Humidity;BMP_temperature;BMP_pressure;BME280_temperature;BME280_humidity;BME280_pressure;Samples;Min_cycle;Max_cycle;Signal;HPM_P1;HPM_P2
2022/11/28 00:01:42;;;;;;;11.68;10.20;;;;;;;7.08;95.09;100858.72;5104180;28;20031;-58
2022/11/28 00:04:08;;;;;;;13.77;10.43;;;;;;;7.07;94.92;100851.75;5079742;28;20116;-58
2022/11/28 00:06:40;;;;;;;13.00;9.35;;;;;;;7.07;95.69;100859.69;5088087;28;20134;-58
2022/11/28 00:09:09;;;;;;;10.65;9.43;;;;;;;7.11;95.28;100855.09;5110776;27;20013;-58
2022/11/28 00:11:35;;;;;;;11.48;9.75;;;;;;;7.13;94.95;100861.16;5072223;28;20024;-58
2022/11/28 00:14:00;;;;;;;14.65;9.75;;;;;;;7.14;95.05;100855.78;5088040;28;20506;-58
2022/11/28 00:16:26;;;;;;;12.10;10.10;;;;;;;7.16;95.15;100851.28;5070251;28;20456;-59
2022/11/28 00:18:54;;;;;;;11.93;9.40;;;;;;;7.15;95.68;100846.94;5088355;28;20526;-58
2022/11/28 00:21:20;;;;;;;12.02;9.20;;;;;;;7.19;95.40;100842.34;5089543;28;20093;-59
2022/11/28 00:23:47;;;;;;;9.80;8.90;;;;;;;7.21;95.05;100846.66;5087953;28;20047;-59
2022/11/28 00:26:22;;;;;;;10.70;8.48;;;;;;;7.26;95.10;100851.69;5091365;28;20067;-59
2022/11/28 00:28:47;;;;;;;9.80;8.68;;;;;;;7.34;94.91;100849.53;5090994;28;20084;-59
2022/11/28 00:31:17;;;;;;;8.93;8.02;;;;;;;7.33;94.96;100842.53;5089659;28;20016;-59
2022/11/28 00:33:42;;;;;;;9.07;8.02;;;;;;;7.35;95.01;100842.44;5102378;28;20486;-58
2022/11/28 00:36:09;;;;;;;7.40;6.68;;;;;;;7.38;94.89;100827.28;5119493;27;20063;-58
2022/11/28 00:38:35;;;;;;;9.63;7.63;;;;;;;7.37;95.84;100830.00;5104082;27;20119;-58
2022/11/28 00:41:09;;;;;;;13.65;7.63;;;;;;;7.27;95.10;100822.53;5072638;28;20120;-58
2022/11/28 00:43:34;;;;;;;8.80;7.90;;;;;;;7.41;95.14;100835.06;5069119;28;20031;-58
2022/11/28 00:46:00;;;;;;;9.00;7.45;;;;;;;7.42;94.97;100836.78;5069355;28;20024;-58
2022/11/28 00:48:26;;;;;;;8.60;7.70;;;;;;;7.42;95.22;100828.84;5070888;28;20020;-59
2022/11/28 00:50:52;;;;;;;8.07;7.28;;;;;;;7.37;95.30;100817.63;5070404;28;20146;-58
2022/11/28 00:53:18;;;;;;;8.43;7.35;;;;;;;7.40;95.80;100829.84;5103975;27;20062;-58
2022/11/28 00:55:43;;;;;;;9.38;7.47;;;;;;;7.42;95.45;100826.19;5069725;28;20414;-59
2022/11/28 00:58:11;;;;;;;9.57;7.93;;;;;;;7.42;95.57;100825.34;5070463;28;20029;-58
2022/11/28 01:00:37;;;;;;;8.05;7.22;;;;;;;7.40;95.60;100825.41;5086396;28;20032;-58
2022/11/28 01:03:03;;;;;;;8.05;7.35;;;;;;;7.42;95.03;100830.63;5071176;28;20028;-58
2022/11/28 01:05:28;;;;;;;8.50;7.57;;;;;;;7.42;95.64;100831.50;5071628;28;20032;-59
2022/11/28 01:07:53;;;;;;;9.00;7.72;;;;;;;7.41;95.77;100832.44;5070839;28;20024;-58
2022/11/28 01:10:19;;;;;;;8.85;8.07;;;;;;;7.39;96.15;100829.00;5104300;28;20028;-58
2022/11/28 01:12:47;;;;;;;9.25;8.20;;;;;;;7.40;96.21;100827.19;5071924;28;20039;-59
2022/11/28 01:15:15;;;;;;;8.75;7.82;;;;;;;7.37;96.15;100824.72;5078969;28;20032;-58
2022/11/28 01:17:40;;;;;;;8.75;7.95;;;;;;;7.38;96.77;100829.94;5090854;28;20039;-58
2022/11/28 01:20:08;;;;;;;8.45;7.68;;;;;;;7.41;97.18;100828.91;5090703;28;20036;-58
2022/11/28 01:22:33;;;;;;;10.35;7.30;;;;;;;7.40;96.75;100827.19;5090624;28;20067;-58
2022/11/28 01:24:59;;;;;;;8.20;7.40;;;;;;;7.39;97.13;100821.06;5091324;28;20072;-58
2022/11/28 01:27:24;;;;;;;9.45;7.55;;;;;;;7.39;96.79;100825.50;5091538;28;20028;-58
2022/11/28 01:29:51;;;;;;;8.10;7.30;;;;;;;7.40;96.73;100825.41;5091306;28;20071;-58
2022/11/28 01:32:17;;;;;;;8.68;7.68;;;;;;;7.40;97.10;100820.13;5077673;28;20025;-58
2022/11/28 01:34:42;;;;;;;8.82;7.05;;;;;;;7.42;96.92;100825.34;5071157;28;20060;-59
2022/11/28 01:37:08;;;;;;;9.60;7.55;;;;;;;7.41;97.80;100827.13;5071512;28;20047;-58
2022/11/28 01:39:33;;;;;;;7.90;7.13;;;;;;;7.38;98.22;100829.94;5070787;28;20490;-58
2022/11/28 01:41:59;;;;;;;8.13;7.18;;;;;;;7.39;98.59;100829.00;5083541;28;20081;-58
2022/11/28 01:44:24;;;;;;;7.38;6.60;;;;;;;7.35;99.10;100832.72;5091215;28;20486;-58
2022/11/28 01:46:50;;;;;;;8.80;7.22;;;;;;;7.33;99.90;100831.94;5090427;28;20115;-58
2022/11/28 01:49:18;;;;;;;7.72;7.00;;;;;;;7.29;100.00;100822.44;5087107;28;20033;-58
2022/11/28 01:51:49;;;;;;;9.75;7.00;;;;;;;7.24;100.00;100812.09;5085469;28;20023;-59
2022/11/28 01:54:17;;;;;;;8.98;7.07;;;;;;;7.27;100.00;100814.59;5090789;28;20028;-59
2022/11/28 01:56:50;;;;;;;9.48;7.32;;;;;;;7.26;100.00;100819.94;5091334;28;20016;-58
2022/11/28 01:59:16;;;;;;;7.97;6.70;;;;;;;7.25;100.00;100820.88;5074775;28;20020;-58
2022/11/28 02:01:43;;;;;;;8.40;7.60;;;;;;;7.21;100.00;100820.19;5071144;28;20025;-58
2022/11/28 02:04:12;;;;;;;8.73;7.43;;;;;;;7.23;100.00;100822.75;5070985;28;20107;-58
2022/11/28 02:06:38;;;;;;;8.40;7.38;;;;;;;7.20;100.00;100813.16;5070111;28;20028;-58
2022/11/28 02:09:08;;;;;;;7.63;6.80;;;;;;;7.22;100.00;100813.09;5069312;28;20055;-58
2022/11/28 02:11:52;;;;;;;7.80;7.00;;;;;;;7.20;100.00;100805.22;5071053;28;20071;-58
2022/11/28 02:14:32;;;;;;;9.20;6.90;;;;;;;7.20;100.00;100807.88;5072034;28;20480;-59
2022/11/28 02:17:16;;;;;;;8.30;7.45;;;;;;;7.22;100.00;100803.38;5070833;28;20029;-59
2022/11/28 02:20:17;;;;;;;7.35;6.72;;;;;;;7.23;100.00;100804.22;5075011;28;20062;-58
2022/11/28 02:23:02;;;;;;;8.50;7.40;;;;;;;7.24;100.00;100803.31;5074098;28;20028;-58
2022/11/28 02:25:54;;;;;;;7.68;6.95;;;;;;;7.24;100.00;100803.31;5074339;28;20502;-58
2022/11/28 02:28:50;;;;;;;8.23;6.65;;;;;;;7.23;100.00;100799.78;5074223;28;20049;-58
2022/11/28 02:32:02;;;;;;;7.88;6.78;;;;;;;7.29;100.00;100795.97;5073078;28;20458;-58
2022/11/28 02:34:49;;;;;;;9.93;6.15;;;;;;;7.24;100.00;100804.16;5073396;28;20384;-58
2022/11/28 02:37:26;;;;;;;7.65;6.85;;;;;;;7.23;100.00;100789.22;5094057;28;20387;-58
2022/11/28 02:40:16;;;;;;;7.72;6.57;;;;;;;7.22;100.00;100791.94;5093677;28;20032;-59
2022/11/28 02:43:09;;;;;;;7.50;6.65;;;;;;;7.18;100.00;100808.91;5094242;28;20036;-58
2022/11/28 02:45:38;;;;;;;8.05;6.07;;;;;;;7.17;100.00;100797.44;5094151;28;20036;-58
2022/11/28 02:48:12;;;;;;;7.30;6.65;;;;;;;7.15;100.00;100796.69;5092909;28;20024;-58
2022/11/28 02:50:59;;;;;;;12.82;6.95;;;;;;;7.11;100.00;100784.53;5094416;28;20035;-59
2022/11/28 02:53:31;;;;;;;7.88;6.60;;;;;;;7.12;100.00;100804.78;5093850;28;20455;-58
2022/11/28 02:55:58;;;;;;;8.65;6.93;;;;;;;7.03;100.00;100787.56;5076998;28;20388;-58
2022/11/28 02:58:24;;;;;;;10.07;6.50;;;;;;;7.11;100.00;100792.47;5073769;28;20143;-58
2022/11/28 03:00:50;;;;;;;7.13;6.45;;;;;;;7.07;100.00;100790.06;5073945;28;20075;-60
2022/11/28 03:03:34;;;;;;;6.60;6.00;;;;;;;7.08;100.00;100787.34;5084357;28;20542;-59
2022/11/28 03:06:16;;;;;;;7.97;6.10;;;;;;;7.08;100.00;100784.69;5083993;28;20085;-59
2022/11/28 03:09:06;;;;;;;6.78;6.15;;;;;;;7.06;100.00;100786.56;5093618;28;20024;-58
2022/11/28 03:11:38;;;;;;;;;;;;;;;7.13;100.00;100774.75;5094456;28;20024;-58
2022/11/28 03:14:25;;;;;;;7.82;5.95;;;;;;;7.05;100.00;100776.91;5092619;28;19915;-58
2022/11/28 03:17:07;;;;;;;8.48;6.43;;;;;;;7.09;100.00;100777.59;5076134;28;20150;-58
2022/11/28 03:19:38;;;;;;;6.93;6.32;;;;;;;7.04;100.00;100778.69;5073777;28;20033;-59
2022/11/28 03:22:10;;;;;;;7.70;6.57;;;;;;;7.03;100.00;100778.78;5074610;28;20043;-58
2022/11/28 03:24:47;;;;;;;7.40;6.80;;;;;;;7.02;100.00;100777.91;5072725;28;20027;-58
2022/11/28 03:27:19;;;;;;;7.15;6.47;;;;;;;7.00;100.00;100776.28;5105748;28;20122;-59
2022/11/28 03:29:51;;;;;;;8.35;6.57;;;;;;;7.02;100.00;100774.41;5072801;28;20052;-59
2022/11/28 03:32:27;;;;;;;8.30;6.57;;;;;;;6.96;100.00;100767.63;5073030;28;20090;-59
2022/11/28 03:35:04;;;;;;;9.13;7.00;;;;;;;6.99;100.00;100775.41;5071033;28;20046;-58
2022/11/28 03:37:34;;;;;;;6.45;5.85;;;;;;;6.98;100.00;100778.16;5072911;28;20054;-58
2022/11/28 03:40:11;;;;;;;10.07;6.63;;;;;;;6.94;100.00;100771.28;5071746;28;20039;-59
2022/11/28 03:42:47;;;;;;;8.35;6.70;;;;;;;6.98;100.00;100773.72;5071477;28;20044;-58
2022/11/28 03:45:25;;;;;;;6.65;6.05;;;;;;;7.00;100.00;100782.44;5071527;28;20024;-59
2022/11/28 03:48:01;;;;;;;7.30;6.25;;;;;;;7.00;100.00;100773.63;5072132;28;20033;-59
2022/11/28 03:50:55;;;;;;;7.50;6.55;;;;;;;7.00;100.00;100777.16;5077213;28;20020;-58
2022/11/28 03:53:35;;;;;;;8.20;7.25;;;;;;;6.96;100.00;100765.00;5092354;28;20099;-58
2022/11/28 03:56:36;;;;;;;6.35;5.78;;;;;;;7.00;100.00;100773.63;5089641;28;20027;-58
2022/11/28 03:59:06;;;;;;;7.07;6.38;;;;;;;6.98;100.00;100775.50;5071060;28;20040;-58
2022/11/28 04:01:58;;;;;;;9.00;6.43;;;;;;;7.01;100.00;100770.91;5071213;28;20412;-58
2022/11/28 04:05:00;;;;;;;7.25;6.47;;;;;;;6.97;100.00;100774.66;5070731;28;20116;-58
2022/11/28 04:07:47;;;;;;;6.45;5.85;;;;;;;6.97;100.00;100779.94;5072894;28;20480;-58
2022/11/28 04:10:12;;;;;;;6.72;6.13;;;;;;;6.95;100.00;100780.94;5072603;28;20032;-59
2022/11/28 04:12:58;;;;;;;6.72;6.07;;;;;;;6.97;100.00;100779.94;5072454;28;20093;-58
2022/11/28 04:15:35;;;;;;;7.93;6.90;;;;;;;6.96;100.00;100778.22;5072445;28;20025;-58
2022/11/28 04:18:25;;;;;;;11.73;6.57;;;;;;;6.99;100.00;100774.56;5072168;28;20029;-58
2022/11/28 04:21:07;;;;;;;;;;;;;;;7.05;100.00;100772.47;5072833;28;20028;-58
2022/11/28 04:23:35;;;;;;;6.80;6.20;;;;;;;6.97;100.00;100782.59;5071567;28;20432;-59
2022/11/28 04:26:06;;;;;;;8.27;7.03;;;;;;;6.94;100.00;100780.09;5073234;28;20036;-59
2022/11/28 04:28:35;;;;;;;8.00;7.30;;;;;;;6.89;100.00;100773.31;5071805;28;20095;-58
2022/11/28 04:31:04;;;;;;;7.65;6.72;;;;;;;6.96;100.00;100785.31;5071998;28;20123;-58
2022/11/28 04:33:36;;;;;;;8.68;7.18;;;;;;;6.89;100.00;100774.19;5072313;28;20052;-58
2022/11/28 04:36:07;;;;;;;8.40;6.55;;;;;;;6.98;100.00;100780.81;5071476;28;20114;-59
2022/11/28 04:38:34;;;;;;;8.07;7.15;;;;;;;6.90;100.00;100767.94;5071383;28;20066;-58
2022/11/28 04:41:05;;;;;;;7.75;7.05;;;;;;;6.99;100.00;100780.72;5087794;28;20078;-58
2022/11/28 04:43:38;;;;;;;7.45;6.55;;;;;;;6.97;100.00;100779.94;5091903;28;20020;-58
2022/11/28 04:46:10;;;;;;;7.57;6.97;;;;;;;6.85;100.00;100758.53;5124838;27;20020;-58
2022/11/28 04:48:36;;;;;;;7.85;6.65;;;;;;;7.00;100.00;100782.44;5090970;28;20020;-58
2022/11/28 04:51:19;;;;;;;7.78;7.15;;;;;;;6.97;100.00;100784.34;5091953;28;20023;-58
2022/11/28 04:53:51;;;;;;;7.20;6.60;;;;;;;6.97;100.00;100782.59;5090657;28;20491;-58
2022/11/28 04:56:44;;;;;;;7.55;6.85;;;;;;;7.01;100.00;100781.50;5073410;28;20166;-58
2022/11/28 04:59:12;;;;;;;7.65;6.93;;;;;;;6.94;100.00;100771.28;5071539;28;20093;-59
2022/11/28 05:01:40;;;;;;;8.18;7.10;;;;;;;6.99;100.00;100779.84;5072028;28;20103;-58
2022/11/28 05:04:06;;;;;;;7.97;7.25;;;;;;;6.99;100.00;100778.06;5071717;28;20025;-59
2022/11/28 05:06:36;;;;;;;8.00;7.30;;;;;;;6.98;100.00;100775.50;5070156;28;20028;-58
2022/11/28 05:09:05;;;;;;;8.57;7.72;;;;;;;6.92;100.00;100774.03;5070949;28;20017;-59
2022/11/28 05:11:31;;;;;;;8.38;7.63;;;;;;;7.02;100.00;100782.34;5072282;28;20035;-59
2022/11/28 05:13:57;;;;;;;8.30;7.22;;;;;;;6.99;100.00;100777.22;5071491;28;20016;-58
2022/11/28 05:16:23;;;;;;;8.50;7.80;;;;;;;6.97;100.00;100785.25;5112913;27;20039;-58
2022/11/28 05:18:48;;;;;;;8.38;7.68;;;;;;;7.00;100.00;100792.13;5078130;28;20032;-59
2022/11/28 05:21:14;;;;;;;8.60;7.88;;;;;;;6.99;100.00;100788.63;5071460;28;20025;-58
2022/11/28 05:23:42;;;;;;;9.15;8.35;;;;;;;6.98;100.00;100779.00;5071081;28;20475;-58
2022/11/28 05:26:11;;;;;;;8.77;7.97;;;;;;;6.95;100.00;100786.25;5072008;28;20025;-59
2022/11/28 05:28:37;;;;;;;9.68;8.68;;;;;;;7.01;100.00;100785.94;5071356;28;20768;-58
2022/11/28 05:31:03;;;;;;;8.85;7.95;;;;;;;7.01;100.00;100794.72;5071491;28;20115;-59
2022/11/28 05:33:30;;;;;;;9.10;8.20;;;;;;;7.02;100.00;100788.50;5077638;28;20101;-59
2022/11/28 05:35:56;;;;;;;9.43;8.43;;;;;;;7.04;100.00;100791.91;5089943;28;20031;-59
2022/11/28 05:38:22;;;;;;;9.50;8.50;;;;;;;7.05;100.00;100792.78;5122955;28;20438;-59
2022/11/28 05:40:48;;;;;;;10.65;9.55;;;;;;;7.07;100.00;100801.50;5090127;28;20020;-59
2022/11/28 05:43:13;;;;;;;9.77;8.85;;;;;;;7.08;100.00;100799.69;5071031;28;20041;-58
2022/11/28 05:45:42;;;;;;;9.70;8.70;;;;;;;7.11;100.00;100792.47;5070957;28;20052;-59
2022/11/28 05:48:09;;;;;;;9.93;9.00;;;;;;;7.11;100.00;100794.25;5071124;28;20054;-59
2022/11/28 05:50:38;;;;;;;10.15;9.25;;;;;;;7.08;100.00;100797.06;5070242;28;20103;-58
2022/11/28 05:53:04;;;;;;;10.57;9.68;;;;;;;7.07;100.00;100785.63;5069960;28;20024;-58
2022/11/28 05:55:30;;;;;;;10.00;9.07;;;;;;;7.02;100.00;100783.19;5075158;28;20483;-58
2022/11/28 05:57:55;;;;;;;10.10;9.30;;;;;;;7.10;100.00;100790.75;5074729;28;20468;-58
2022/11/28 06:00:21;;;;;;;10.20;9.20;;;;;;;7.04;100.00;100784.00;5075028;28;20070;-58
2022/11/28 06:02:47;;;;;;;9.55;8.65;;;;;;;7.10;100.00;100793.41;5073529;28;20070;-59
2022/11/28 06:05:12;;;;;;;10.23;9.27;;;;;;;7.10;100.00;100788.13;5074961;28;20111;-59
2022/11/28 06:07:38;;;;;;;9.88;8.98;;;;;;;7.09;100.00;100782.91;5074755;28;20063;-58
2022/11/28 06:10:04;;;;;;;9.90;9.10;;;;;;;7.14;100.00;100788.81;5069432;28;20506;-58
2022/11/28 06:12:32;;;;;;;10.13;9.27;;;;;;;7.18;100.00;100798.34;5076284;28;20027;-59
2022/11/28 06:14:58;;;;;;;10.77;9.77;;;;;;;7.17;100.00;100799.25;5085976;28;20075;-59
2022/11/28 06:17:23;;;;;;;10.45;9.43;;;;;;;7.17;100.00;100789.50;5074306;28;20517;-58
2022/11/28 06:19:54;;;;;;;10.20;9.20;;;;;;;7.14;100.00;100789.66;5074496;28;20028;-58
2022/11/28 06:22:20;;;;;;;9.85;9.02;;;;;;;7.15;100.00;100798.50;5075174;28;20435;-58
2022/11/28 06:24:45;;;;;;;11.13;10.13;;;;;;;7.16;100.00;100798.41;5093105;28;20039;-59
2022/11/28 06:27:10;;;;;;;10.68;9.77;;;;;;;7.17;100.00;100796.59;5094765;28;20173;-58
2022/11/28 06:29:36;;;;;;;10.80;9.73;;;;;;;7.17;100.00;100808.03;5093850;28;20056;-59
2022/11/28 06:32:01;;;;;;;11.02;10.02;;;;;;;7.16;100.00;100806.31;5094547;28;20306;-59
2022/11/28 06:34:27;;;;;;;10.48;9.65;;;;;;;7.19;100.00;100807.97;5093117;28;20495;-59
2022/11/28 06:36:52;;;;;;;10.93;9.93;;;;;;;7.19;100.00;100808.81;5094304;28;20028;-59
2022/11/28 06:39:18;;;;;;;11.05;10.15;;;;;;;7.21;100.00;100814.06;5092540;28;20028;-58
2022/11/28 06:41:43;;;;;;;11.57;10.57;;;;;;;7.20;100.00;100820.25;5092167;28;20054;-59
2022/11/28 06:44:13;;;;;;;10.77;9.88;;;;;;;7.20;100.00;100821.09;5086918;28;20033;-58
2022/11/28 06:46:38;;;;;;;11.43;10.52;;;;;;;7.20;100.00;100813.16;5073608;28;20075;-63
2022/11/28 06:49:04;;;;;;;11.43;10.52;;;;;;;7.21;100.00;100811.41;5107906;27;20032;-58
2022/11/28 06:51:29;;;;;;;11.15;10.25;;;;;;;7.18;100.00;100801.81;5073884;28;20060;-59
2022/11/28 06:53:55;;;;;;;12.73;11.73;;;;;;;7.21;100.00;100811.41;5074384;28;20047;-59
2022/11/28 06:56:20;;;;;;;11.52;10.52;;;;;;;7.23;100.00;100812.16;5093962;28;20058;-61
2022/11/28 06:58:51;;;;;;;11.80;10.70;;;;;;;7.22;100.00;100811.31;5094078;28;20040;-59
2022/11/28 07:01:19;;;;;;;11.95;10.75;;;;;;;7.22;100.00;100816.59;5091699;28;20394;-59
2022/11/28 07:03:45;;;;;;;11.70;10.68;;;;;;;7.20;100.00;100813.16;5104367;28;20059;-59
2022/11/28 07:06:12;;;;;;;11.57;10.57;;;;;;;7.22;100.00;100815.75;5093048;28;20032;-59
2022/11/28 07:08:39;;;;;;;12.35;11.25;;;;;;;7.23;100.00;100817.44;5092823;28;20040;-59
2022/11/28 07:11:19;;;;;;;12.52;11.23;;;;;;;7.25;100.00;100826.19;5082787;28;20115;-59
2022/11/28 07:13:46;;;;;;;12.52;11.43;;;;;;;7.26;100.00;100825.22;5090749;28;20032;-59
2022/11/28 07:16:17;;;;;;;13.52;12.32;;;;;;;7.26;100.00;100827.88;5092768;28;20055;-59
2022/11/28 07:18:43;;;;;;;12.40;11.30;;;;;;;7.27;100.00;100826.97;5091606;28;20039;-59
2022/11/28 07:21:08;;;;;;;12.45;11.35;;;;;;;7.28;100.00;100828.66;5092904;28;20476;-59
2022/11/28 07:23:36;;;;;;;12.88;11.57;;;;;;;7.26;100.00;100823.47;5092051;28;20031;-59
2022/11/28 07:26:05;;;;;;;13.35;12.10;;;;;;;7.23;100.00;100820.94;5093347;28;20066;-59
2022/11/28 07:28:33;;;;;;;13.02;11.77;;;;;;;7.30;100.00;100823.31;5089432;28;20035;-58
2022/11/28 07:30:59;;;;;;;12.88;11.75;;;;;;;7.29;100.00;100827.72;5073456;28;20033;-59
2022/11/28 07:33:24;;;;;;;12.77;11.63;;;;;;;7.30;100.00;100829.47;5077349;28;20054;-59
2022/11/28 07:35:50;;;;;;;12.80;11.65;;;;;;;7.30;100.00;100836.53;5094471;28;20107;-59
2022/11/28 07:38:15;;;;;;;13.70;12.27;;;;;;;7.31;100.00;100838.25;5095714;28;20116;-59
2022/11/28 07:40:43;;;;;;;13.68;12.48;;;;;;;7.30;100.00;100842.69;5094868;28;20028;-59
2022/11/28 07:43:09;;;;;;;13.07;11.88;;;;;;;7.32;100.00;100840.81;5098478;28;20031;-59
2022/11/28 07:45:38;;;;;;;12.82;11.63;;;;;;;7.33;100.00;100844.31;5086359;28;20364;-59
2022/11/28 07:48:05;;;;;;;13.85;12.13;;;;;;;7.33;100.00;100841.69;5094446;28;20015;-59
2022/11/28 07:50:33;;;;;;;12.80;11.60;;;;;;;7.30;100.00;100845.34;5095771;28;20024;-59
2022/11/28 07:52:58;;;;;;;13.13;11.93;;;;;;;7.36;100.00;100846.81;5091862;28;20627;-59
2022/11/28 07:55:24;;;;;;;14.88;13.45;;;;;;;7.35;100.00;100851.22;5092090;28;20032;-59
2022/11/28 07:57:49;;;;;;;13.88;12.48;;;;;;;7.37;100.00;100859.09;5090784;28;20128;-59
2022/11/28 08:00:15;;;;;;;13.73;12.40;;;;;;;7.32;100.00;100854.03;5091733;28;20024;-59
2022/11/28 08:02:41;;;;;;;13.65;12.45;;;;;;;7.30;100.00;100855.06;5092320;28;20027;-59
2022/11/28 08:05:06;;;;;;;14.45;13.10;;;;;;;7.38;100.00;100856.41;5090565;28;20027;-59
2022/11/28 08:07:32;;;;;;;13.95;12.63;;;;;;;7.37;100.00;100854.66;5092142;28;20059;-59
2022/11/28 08:10:00;;;;;;;13.63;12.02;;;;;;;7.39;100.00;100859.91;5090042;28;20433;-59
2022/11/28 08:12:25;;;;;;;13.73;12.43;;;;;;;7.40;100.00;100859.81;5083586;28;20484;-59
2022/11/28 08:14:51;;;;;;;13.75;12.35;;;;;;;7.42;100.00;100855.31;5090086;28;20119;-59
2022/11/28 08:17:16;;;;;;;13.68;12.27;;;;;;;7.37;100.00;100846.72;5090079;28;20429;-59
2022/11/28 08:19:41;;;;;;;13.43;12.13;;;;;;;7.44;100.00;100864.03;5091355;28;20024;-59
2022/11/28 08:22:07;;;;;;;14.20;12.80;;;;;;;7.47;100.00;100865.63;5090794;28;20105;-59
2022/11/28 08:24:35;;;;;;;13.88;12.48;;;;;;;7.47;100.00;100869.16;5078805;28;20062;-59
2022/11/28 08:27:00;;;;;;;14.73;13.02;;;;;;;7.47;100.00;100868.28;5086758;28;20111;-59
2022/11/28 08:29:26;;;;;;;14.57;12.73;;;;;;;7.49;100.00;100866.44;5118727;27;20182;-59
2022/11/28 08:31:54;;;;;;;14.05;12.65;;;;;;;7.51;100.00;100864.56;5094834;28;20118;-59
2022/11/28 08:34:20;;;;;;;14.93;13.48;;;;;;;7.50;100.00;100869.00;5091658;28;20600;-59
2022/11/28 08:36:47;;;;;;;14.88;13.48;;;;;;;7.55;100.00;100871.41;5091776;28;20118;-59
2022/11/28 08:39:15;;;;;;;14.50;13.13;;;;;;;7.49;100.00;100867.28;5089693;28;20028;-59
2022/11/28 08:41:40;;;;;;;16.13;14.43;;;;;;;7.55;100.00;100874.06;5090114;28;20032;-59
2022/11/28 08:44:05;;;;;;;16.38;14.68;;;;;;;7.55;100.00;100875.84;5081623;28;20086;-59
2022/11/28 08:46:31;;;;;;;14.82;13.30;;;;;;;7.57;100.00;100882.78;5089910;28;20106;-59
2022/11/28 08:48:58;;;;;;;15.18;13.68;;;;;;;7.56;100.00;100878.44;5085831;28;20032;-59
2022/11/28 08:51:24;;;;;;;15.68;14.02;;;;;;;7.59;100.00;100888.88;5091250;28;20051;-59
2022/11/28 08:53:50;;;;;;;16.58;14.70;;;;;;;7.60;100.00;100887.06;5090198;28;20023;-59
2022/11/28 08:56:15;;;;;;;14.68;13.25;;;;;;;7.59;100.00;100877.41;5093255;28;20028;-59
2022/11/28 08:58:42;;;;;;;15.30;13.77;;;;;;;7.60;100.00;100877.34;5089372;28;20516;-59
2022/11/28 09:01:20;;;;;;;15.25;13.65;;;;;;;7.64;100.00;100872.75;5091395;28;20092;-60
2022/11/28 09:03:46;;;;;;;16.50;13.95;;;;;;;7.65;100.00;100869.19;5095582;28;20034;-59
2022/11/28 09:06:13;;;;;;;15.45;13.75;;;;;;;7.59;100.00;100867.69;5096774;28;20087;-59
2022/11/28 09:08:38;;;;;;;16.60;14.02;;;;;;;7.66;100.00;100882.31;5093455;28;20589;-59
2022/11/28 09:11:09;;;;;;;17.80;14.25;;;;;;;7.67;100.00;100880.53;5091354;28;20115;-60
2022/11/28 09:13:36;;;;;;;15.18;13.63;;;;;;;7.67;100.00;100886.66;5093420;28;20120;-59
2022/11/28 09:16:01;;;;;;;16.77;13.95;;;;;;;7.65;100.00;100877.97;5094535;28;20024;-59
2022/11/28 09:18:28;;;;;;;15.27;13.73;;;;;;;7.70;100.00;100885.66;5089522;28;20031;-59
2022/11/28 09:21:01;;;;;;;14.32;12.93;;;;;;;7.70;100.00;100897.09;5095894;28;20032;-59
2022/11/28 09:23:28;;;;;;;15.68;13.57;;;;;;;7.71;100.00;100898.00;5091968;28;20023;-59
2022/11/28 09:25:54;;;;;;;15.20;13.60;;;;;;;7.66;100.00;100881.47;5085277;28;20031;-59
2022/11/28 09:28:20;;;;;;;14.70;13.20;;;;;;;7.72;100.00;100891.75;5125836;27;20440;-58
2022/11/28 09:30:45;;;;;;;15.90;13.80;;;;;;;7.74;100.00;100897.84;5083068;28;20024;-59
2022/11/28 09:33:12;;;;;;;15.48;13.88;;;;;;;7.74;100.00;100896.03;5093839;28;20217;-59
2022/11/28 09:35:38;;;;;;;15.90;13.63;;;;;;;7.75;100.00;100899.53;5095335;28;20031;-59
2022/11/28 09:38:04;;;;;;;15.77;14.02;;;;;;;7.77;100.00;100897.69;5094250;28;20024;-59
2022/11/28 09:40:39;;;;;;;17.08;14.35;;;;;;;7.77;100.00;100895.03;5093475;28;20062;-59
2022/11/28 09:43:17;;;;;;;15.48;13.70;;;;;;;7.78;100.00;100893.22;5094800;28;20027;-59
2022/11/28 09:45:51;;;;;;;15.02;13.43;;;;;;;7.81;100.00;100895.72;5094731;28;20028;-59
2022/11/28 09:48:29;;;;;;;15.13;13.63;;;;;;;7.83;100.00;100889.41;5094146;28;20077;-59
2022/11/28 09:51:14;;;;;;;15.85;14.27;;;;;;;7.79;100.00;100890.50;5096288;28;20115;-59
2022/11/28 09:53:54;;;;;;;16.70;14.93;;;;;;;7.87;100.00;100906.84;5094604;28;20032;-59
2022/11/28 09:56:23;;;;;;;16.10;14.40;;;;;;;7.89;100.00;100905.00;5094769;28;20496;-59
2022/11/28 09:58:54;;;;;;;17.42;15.52;;;;;;;7.92;100.00;100910.13;5086787;28;20021;-59
2022/11/28 10:01:36;;;;;;;17.23;15.43;;;;;;;7.93;100.00;100901.25;5111184;27;20107;-59
2022/11/28 10:04:04;;;;;;;18.98;15.63;;;;;;;7.95;100.00;100902.03;5094404;28;20020;-59
2022/11/28 10:06:44;;;;;;;17.60;15.80;;;;;;;7.80;100.00;100878.97;5094562;28;20035;-59
2022/11/28 10:09:33;;;;;;;18.10;16.17;;;;;;;7.99;100.00;100902.72;5093824;28;20028;-59
2022/11/28 10:12:04;;;;;;;17.73;15.82;;;;;;;8.01;100.00;100892.91;5094485;28;20028;-59
2022/11/28 10:14:49;;;;;;;19.88;17.13;;;;;;;8.04;100.00;100897.19;5085175;28;20468;-59
2022/11/28 10:17:29;;;;;;;19.45;16.15;;;;;;;8.04;100.00;100900.69;5086668;28;20408;-59
2022/11/28 10:20:02;;;;;;;18.95;17.05;;;;;;;8.05;100.00;100899.75;5093929;28;20024;-59
2022/11/28 10:23:03;;;;;;;19.45;17.45;;;;;;;8.00;100.00;100883.25;5093110;28;20063;-59
2022/11/28 10:25:38;;;;;;;20.38;18.27;;;;;;;8.10;100.00;100896.88;5091954;28;20039;-59
2022/11/28 10:28:13;;;;;;;18.80;16.83;;;;;;;8.10;100.00;100895.06;5093276;28;20111;-59
2022/11/28 10:30:42;;;;;;;20.55;18.40;;;;;;;8.08;100.00;100882.84;5094853;28;20399;-59
2022/11/28 10:33:27;;;;;;;20.92;18.05;;;;;;;8.19;100.00;100901.69;5090322;27;20024;-60
2022/11/28 10:35:59;;;;;;;20.10;18.00;;;;;;;8.19;100.00;100905.19;5093909;28;20024;-59
2022/11/28 10:38:27;;;;;;;20.75;18.58;;;;;;;8.22;100.00;100898.88;5092050;28;20111;-59
2022/11/28 10:41:11;;;;;;;23.33;20.38;;;;;;;8.28;100.00;100898.56;5093293;28;20101;-59
2022/11/28 10:43:45;;;;;;;20.15;18.02;;;;;;;8.25;100.00;100898.72;5093701;28;20364;-59
2022/11/28 10:46:28;;;;;;;20.33;18.20;;;;;;;8.28;100.00;100906.50;5087488;28;20471;-59
2022/11/28 10:49:19;;;;;;;21.13;18.88;;;;;;;8.29;100.00;100907.34;5083417;28;20386;-59
2022/11/28 10:51:53;;;;;;;23.58;19.85;;;;;;;8.32;100.00;100904.53;5081137;28;20479;-59
2022/11/28 10:54:43;;;;;;;24.63;21.98;;;;;;;8.33;100.00;100909.78;5123840;27;20093;-59
2022/11/28 10:57:18;;;;;;;22.13;19.73;;;;;;;8.36;100.00;100911.41;5085562;28;20025;-59
2022/11/28 11:00:11;;;;;;;25.10;21.90;;;;;;;8.37;100.00;100913.97;5093133;28;20028;-59
2022/11/28 11:02:45;;;;;;;25.13;22.08;;;;;;;8.34;100.00;100910.63;5092861;28;20042;-59
2022/11/28 11:05:14;;;;;;;25.67;22.15;;;;;;;8.37;100.00;100913.97;5093186;28;20095;-59
2022/11/28 11:07:49;;;;;;;27.30;22.50;;;;;;;8.34;100.00;100915.94;5096198;28;20054;-59
2022/11/28 11:10:16;;;;;;;26.08;22.90;;;;;;;8.33;100.00;100912.44;5093460;28;20442;-59
2022/11/28 11:12:43;;;;;;;26.33;22.02;;;;;;;8.31;100.00;100900.19;5093656;28;20038;-59
2022/11/28 11:15:32;;;;;;;27.92;23.55;;;;;;;8.42;100.00;100913.78;5094747;28;20028;-59
2022/11/28 11:18:18;;;;;;;28.40;24.67;;;;;;;8.38;100.00;100905.13;5094467;28;20280;-59
2022/11/28 11:20:44;;;;;;;27.98;24.88;;;;;;;8.33;100.00;100893.03;5089766;28;20496;-59
2022/11/28 11:23:15;;;;;;;28.25;24.42;;;;;;;8.39;100.00;100909.47;5072441;28;20045;-59
2022/11/28 11:25:51;;;;;;;32.03;26.63;;;;;;;8.38;100.00;100905.13;5089126;28;20038;-59
2022/11/28 11:28:42;;;;;;;31.55;26.27;;;;;;;8.41;100.00;100906.72;5094498;28;20542;-58
2022/11/28 11:31:30;;;;;;;33.05;26.35;;;;;;;8.41;100.00;100912.91;5092689;28;20032;-59
2022/11/28 11:34:11;;;;;;;34.05;27.77;;;;;;;8.40;100.00;100905.03;5092689;28;20012;-59
2022/11/28 11:36:36;;;;;;;35.67;28.58;;;;;;;8.41;100.00;100899.66;5092474;28;20030;-59
2022/11/28 11:39:11;;;;;;;34.55;27.65;;;;;;;8.44;100.00;100903.06;5091526;28;20020;-59